createdAt,value
2023-03-29T00:00:37.151Z,1.98
2023-03-29T00:01:37.172Z,2.05
2023-03-29T00:02:37.326Z,1.86
2023-03-29T00:03:37.328Z,1.71
2023-03-29T00:04:37.303Z,1.84
2023-03-29T00:05:37.309Z,1.77
2023-03-29T00:06:37.290Z,1.63
2023-03-29T00:07:37.312Z,1.61
2023-03-29T00:08:37.373Z,1.51
2023-03-29T00:09:37.361Z,1.62
2023-03-29T00:10:37.393Z,1.75
2023-03-29T00:11:37.438Z,1.88
2023-03-29T00:12:37.458Z,1.85
2023-03-29T00:13:37.487Z,1.67
2023-03-29T00:14:37.501Z,1.55
2023-03-29T00:15:37.526Z,1.47
2023-03-29T00:16:37.581Z,1.56
2023-03-29T00:17:37.615Z,1.48
2023-03-29T00:18:37.600Z,1.53
2023-03-29T00:19:37.629Z,1.41
2023-03-29T00:20:37.654Z,1.64
2023-03-29T00:21:37.686Z,1.59
2023-03-29T00:22:37.743Z,1.55
2023-03-29T00:23:37.719Z,1.53
2023-03-29T00:24:37.744Z,1.43
2023-03-29T00:25:37.769Z,1.51
2023-03-29T00:26:37.798Z,1.30
2023-03-29T00:27:37.816Z,1.28
2023-03-29T00:28:37.852Z,1.21
2023-03-29T00:29:37.873Z,1.28
2023-03-29T00:30:37.930Z,1.40
2023-03-29T00:31:38.039Z,1.38
2023-03-29T00:32:38.114Z,1.48
2023-03-29T00:33:37.982Z,1.54
2023-03-29T00:34:38.017Z,1.31
2023-03-29T00:35:38.031Z,1.20
2023-03-29T00:36:38.049Z,1.13
2023-03-29T00:37:38.078Z,1.07
2023-03-29T00:38:38.113Z,0.99
2023-03-29T00:39:38.125Z,1.12
2023-03-29T00:40:38.154Z,1.04
2023-03-29T00:41:38.180Z,1.48
2023-03-29T00:42:38.227Z,1.82
2023-03-29T00:43:38.227Z,1.89
2023-03-29T00:44:38.264Z,1.87
2023-03-29T00:45:38.318Z,1.80
2023-03-29T00:46:38.318Z,1.48
2023-03-29T00:47:38.361Z,1.42
2023-03-29T00:48:38.343Z,1.43
2023-03-29T00:49:38.374Z,1.44
2023-03-29T00:50:38.399Z,1.33
2023-03-29T00:51:38.423Z,1.34
2023-03-29T00:52:38.460Z,1.52
2023-03-29T00:53:38.469Z,1.59
2023-03-29T00:54:38.533Z,1.57
2023-03-29T00:55:38.529Z,1.56
2023-03-29T00:56:38.596Z,1.53
2023-03-29T00:57:38.585Z,1.50
2023-03-29T00:58:38.591Z,1.53
2023-03-29T00:59:38.645Z,1.69
2023-03-29T01:00:38.657Z,1.64
2023-03-29T01:01:38.712Z,1.60
2023-03-29T01:02:38.844Z,1.41
2023-03-29T01:03:38.760Z,1.64
2023-03-29T01:04:38.753Z,1.82
2023-03-29T01:05:38.782Z,1.81
2023-03-29T01:06:38.826Z,2.30
2023-03-29T01:07:38.844Z,2.34
2023-03-29T01:08:38.860Z,2.34
2023-03-29T01:09:38.880Z,1.84
2023-03-29T01:10:38.905Z,1.58
2023-03-29T01:11:38.938Z,1.37
2023-03-29T01:12:38.932Z,1.52
2023-03-29T01:13:38.959Z,1.40
2023-03-29T01:14:38.967Z,1.61
2023-03-29T01:15:38.998Z,1.37
2023-03-29T01:16:39.078Z,1.42
2023-03-29T01:17:39.171Z,1.36
2023-03-29T01:18:39.063Z,1.37
2023-03-29T01:19:39.081Z,1.46
2023-03-29T01:20:39.126Z,1.41
2023-03-29T01:21:39.133Z,1.58
2023-03-29T01:22:39.162Z,1.37
2023-03-29T01:23:39.194Z,1.61
2023-03-29T01:24:39.220Z,1.62
2023-03-29T01:25:39.236Z,1.54
2023-03-29T01:26:39.257Z,1.62
2023-03-29T01:27:39.300Z,1.58
2023-03-29T01:28:39.313Z,1.33
2023-03-29T01:29:39.325Z,1.21
2023-03-29T01:30:39.344Z,1.24
2023-03-29T01:31:39.463Z,1.28
2023-03-29T01:32:39.426Z,1.29
2023-03-29T01:33:39.410Z,1.22
2023-03-29T01:34:39.458Z,1.24
2023-03-29T01:35:39.460Z,1.09
2023-03-29T01:36:39.480Z,1.17
2023-03-29T01:37:39.548Z,1.17
2023-03-29T01:38:39.515Z,1.25
2023-03-29T01:39:39.529Z,1.15
2023-03-29T01:40:39.568Z,1.18
2023-03-29T01:41:39.579Z,0.94
2023-03-29T01:42:39.601Z,1.01
2023-03-29T01:43:39.617Z,0.93
2023-03-29T01:44:39.642Z,0.99
2023-03-29T01:45:39.698Z,0.96
2023-03-29T01:46:39.693Z,0.98
2023-03-29T01:47:39.700Z,1.00
2023-03-29T01:48:39.753Z,1.00
2023-03-29T01:49:39.773Z,1.14
2023-03-29T01:50:39.754Z,1.11
2023-03-29T01:51:39.803Z,1.26
2023-03-29T01:52:39.822Z,1.15
2023-03-29T01:53:39.826Z,1.09
2023-03-29T01:54:39.849Z,1.16
2023-03-29T01:55:39.868Z,1.13
2023-03-29T01:56:39.989Z,1.04
2023-03-29T01:57:39.931Z,1.12
2023-03-29T01:58:39.934Z,1.00
2023-03-29T01:59:39.976Z,0.91
2023-03-29T02:00:40.001Z,1.23
2023-03-29T02:01:40.052Z,1.21
2023-03-29T02:02:40.182Z,1.22
2023-03-29T02:03:40.118Z,1.25
2023-03-29T02:04:40.078Z,1.24
2023-03-29T02:05:40.112Z,1.13
2023-03-29T02:06:40.147Z,1.12
2023-03-29T02:07:40.155Z,1.17
2023-03-29T02:08:40.194Z,1.14
2023-03-29T02:09:40.204Z,1.07
2023-03-29T02:10:40.221Z,1.04
2023-03-29T02:11:40.258Z,1.05
2023-03-29T02:12:40.302Z,1.07
2023-03-29T02:13:40.287Z,1.02
2023-03-29T02:14:40.323Z,1.01
2023-03-29T02:15:40.378Z,1.08
2023-03-29T02:16:40.385Z,1.03
2023-03-29T02:17:40.440Z,0.93
2023-03-29T02:18:40.401Z,1.06
2023-03-29T02:19:40.435Z,0.89
2023-03-29T02:20:40.449Z,0.99
2023-03-29T02:21:40.481Z,1.11
2023-03-29T02:22:40.500Z,1.07
2023-03-29T02:23:40.536Z,0.95
2023-03-29T02:24:40.573Z,1.11
2023-03-29T02:25:40.587Z,0.95
2023-03-29T02:26:40.599Z,1.14
2023-03-29T02:27:40.629Z,1.03
2023-03-29T02:28:40.661Z,1.08
2023-03-29T02:29:40.673Z,1.10
2023-03-29T02:30:40.714Z,1.11
2023-03-29T02:31:40.748Z,1.13
2023-03-29T02:32:40.766Z,1.19
2023-03-29T02:33:40.750Z,1.14
2023-03-29T02:34:40.785Z,1.12
2023-03-29T02:35:40.891Z,1.21
2023-03-29T02:36:40.833Z,1.21
2023-03-29T02:37:40.856Z,1.07
2023-03-29T02:38:40.876Z,0.97
2023-03-29T02:39:40.919Z,1.02
2023-03-29T02:40:40.950Z,1.18
2023-03-29T02:41:40.945Z,1.28
2023-03-29T02:42:40.977Z,1.10
2023-03-29T02:43:40.986Z,1.04
2023-03-29T02:44:41.004Z,1.31
2023-03-29T02:45:41.036Z,1.33
2023-03-29T02:46:41.170Z,1.33
2023-03-29T02:47:41.099Z,1.33
2023-03-29T02:48:41.103Z,1.35
2023-03-29T02:49:41.110Z,1.38
2023-03-29T02:50:41.156Z,1.44
2023-03-29T02:51:41.167Z,1.35
2023-03-29T02:52:41.236Z,1.30
2023-03-29T02:53:41.232Z,1.39
2023-03-29T02:54:41.247Z,1.30
2023-03-29T02:55:41.277Z,1.42
2023-03-29T02:56:41.319Z,1.49
2023-03-29T02:57:41.319Z,1.58
2023-03-29T02:58:41.345Z,1.88
2023-03-29T02:59:41.378Z,1.75
2023-03-29T03:00:41.397Z,1.61
2023-03-29T03:01:41.430Z,1.72
2023-03-29T03:02:41.528Z,1.69
2023-03-29T03:03:41.537Z,1.66
2023-03-29T03:04:41.500Z,1.81
2023-03-29T03:05:41.520Z,1.84
2023-03-29T03:06:41.553Z,1.74
2023-03-29T03:07:41.581Z,1.86
2023-03-29T03:08:41.601Z,1.70
2023-03-29T03:09:41.625Z,1.65
2023-03-29T03:10:41.650Z,1.93
2023-03-29T03:11:41.712Z,1.78
2023-03-29T03:12:41.698Z,1.81
2023-03-29T03:13:41.723Z,1.73
2023-03-29T03:14:41.734Z,1.74
2023-03-29T03:15:41.762Z,1.63
2023-03-29T03:16:41.845Z,1.71
2023-03-29T03:17:41.841Z,1.71
2023-03-29T03:18:41.827Z,1.82
2023-03-29T03:19:41.845Z,1.80
2023-03-29T03:20:41.884Z,1.68
2023-03-29T03:21:41.895Z,1.73
2023-03-29T03:22:41.941Z,1.72
2023-03-29T03:23:41.961Z,1.66
2023-03-29T03:24:42.011Z,1.81
2023-03-29T03:25:41.982Z,1.95
2023-03-29T03:26:42.042Z,1.82
2023-03-29T03:27:42.079Z,1.73
2023-03-29T03:28:42.075Z,1.73
2023-03-29T03:29:42.087Z,1.72
2023-03-29T03:30:42.085Z,1.68
2023-03-29T03:31:42.156Z,1.83
2023-03-29T03:32:42.228Z,1.68
2023-03-29T03:33:42.185Z,1.88
2023-03-29T03:34:42.172Z,1.90
2023-03-29T03:35:42.221Z,1.76
2023-03-29T03:36:42.237Z,1.86
2023-03-29T03:37:42.254Z,1.90
2023-03-29T03:38:42.282Z,1.81
2023-03-29T03:39:42.288Z,1.69
2023-03-29T03:40:42.320Z,1.75
2023-03-29T03:41:42.332Z,1.63
2023-03-29T03:42:42.366Z,1.70
2023-03-29T03:43:42.388Z,1.67
2023-03-29T03:44:42.417Z,1.51
2023-03-29T03:45:42.483Z,1.60
2023-03-29T03:46:42.462Z,1.55
2023-03-29T03:47:42.542Z,1.66
2023-03-29T03:48:42.501Z,1.74
2023-03-29T03:49:42.510Z,1.82
2023-03-29T03:50:42.553Z,1.79
2023-03-29T03:51:42.571Z,1.66
2023-03-29T03:52:42.607Z,1.60
2023-03-29T03:53:42.615Z,1.49
2023-03-29T03:54:42.624Z,1.50
2023-03-29T03:55:42.662Z,1.46
2023-03-29T03:56:42.685Z,1.63
2023-03-29T03:57:42.693Z,1.73
2023-03-29T03:58:42.740Z,1.67
2023-03-29T03:59:42.738Z,1.76
2023-03-29T04:00:42.781Z,1.61
2023-03-29T04:01:42.783Z,1.67
2023-03-29T04:02:42.857Z,1.71
2023-03-29T04:03:42.898Z,1.41
2023-03-29T04:04:42.872Z,1.41
2023-03-29T04:05:42.877Z,1.40
2023-03-29T04:06:43.877Z,1.49
2023-03-29T04:07:42.898Z,1.47
2023-03-29T04:08:42.998Z,1.38
2023-03-29T04:09:42.937Z,1.39
2023-03-29T04:10:42.974Z,1.47
2023-03-29T04:11:42.987Z,1.61
2023-03-29T04:12:42.998Z,1.54
2023-03-29T04:13:43.030Z,1.33
2023-03-29T04:14:43.066Z,1.42
2023-03-29T04:15:43.084Z,1.55
2023-03-29T04:16:43.074Z,1.74
2023-03-29T04:17:43.129Z,1.50
2023-03-29T04:18:43.226Z,1.61
2023-03-29T04:19:43.135Z,1.63
2023-03-29T04:20:43.171Z,1.77
2023-03-29T04:21:43.194Z,2.11
2023-03-29T04:22:43.221Z,2.16
2023-03-29T04:23:43.253Z,1.98
2023-03-29T04:24:43.232Z,1.84
2023-03-29T04:25:43.248Z,1.75
2023-03-29T04:26:43.293Z,1.38
2023-03-29T04:27:43.289Z,1.54
2023-03-29T04:28:43.310Z,1.37
2023-03-29T04:29:43.317Z,1.42
2023-03-29T04:30:43.338Z,1.41
2023-03-29T04:31:43.449Z,1.44
2023-03-29T04:32:43.404Z,1.50
2023-03-29T04:33:43.401Z,1.47
2023-03-29T04:34:43.420Z,1.28
2023-03-29T04:35:43.454Z,1.38
2023-03-29T04:36:43.435Z,1.27
2023-03-29T04:37:43.471Z,1.33
2023-03-29T04:39:43.489Z,1.39
2023-03-29T04:40:43.526Z,1.45
2023-03-29T04:41:43.526Z,1.47
2023-03-29T04:42:43.555Z,1.63
2023-03-29T04:43:43.597Z,1.65
2023-03-29T04:44:43.643Z,1.70
2023-03-29T04:45:43.618Z,1.79
2023-03-29T04:46:43.678Z,1.53
2023-03-29T04:47:43.692Z,1.59
2023-03-29T04:48:43.704Z,1.54
2023-03-29T04:49:43.686Z,1.78
2023-03-29T04:50:43.723Z,1.86
2023-03-29T04:51:43.711Z,1.86
2023-03-29T04:52:43.764Z,1.61
2023-03-29T04:53:43.818Z,1.78
2023-03-29T04:54:43.780Z,1.80
2023-03-29T04:55:43.805Z,2.14
2023-03-29T04:56:43.909Z,2.49
2023-03-29T04:57:43.849Z,2.55
2023-03-29T04:58:43.911Z,2.45
2023-03-29T04:59:43.910Z,2.09
2023-03-29T05:00:43.920Z,2.00
2023-03-29T05:01:43.964Z,1.54
2023-03-29T05:02:44.011Z,1.77
2023-03-29T05:03:43.991Z,1.65
2023-03-29T05:04:44.043Z,1.60
2023-03-29T05:05:44.057Z,1.82
2023-03-29T05:06:44.060Z,1.88
2023-03-29T05:07:44.091Z,1.74
2023-03-29T05:08:44.100Z,1.93
2023-03-29T05:09:44.136Z,1.98
2023-03-29T05:10:44.160Z,1.91
2023-03-29T05:11:44.170Z,1.85
2023-03-29T05:12:44.205Z,1.86
2023-03-29T05:13:44.223Z,1.74
2023-03-29T05:14:44.283Z,1.74
2023-03-29T05:15:44.282Z,1.90
2023-03-29T05:16:44.379Z,1.89
2023-03-29T05:17:44.317Z,2.18
2023-03-29T05:18:44.338Z,2.41
2023-03-29T05:19:44.357Z,2.28
2023-03-29T05:20:44.441Z,2.18
2023-03-29T05:21:45.667Z,2.27
2023-03-29T05:22:44.507Z,2.18
2023-03-29T05:23:44.528Z,2.17
2023-03-29T05:25:44.882Z,2.31
2023-03-29T05:26:44.528Z,2.17
2023-03-29T05:27:44.566Z,2.29
2023-03-29T05:29:44.639Z,2.62
2023-03-29T05:30:44.746Z,2.60
2023-03-29T05:31:44.734Z,3.01
2023-03-29T05:32:44.759Z,3.44
2023-03-29T05:33:44.728Z,4.29
2023-03-29T05:34:44.718Z,3.94
2023-03-29T05:35:44.776Z,3.77
2023-03-29T05:36:44.809Z,3.82
2023-03-29T05:37:44.917Z,4.51
2023-03-29T05:38:44.810Z,5.12
2023-03-29T05:39:44.830Z,5.63
2023-03-29T05:40:44.800Z,5.68
2023-03-29T05:41:44.797Z,5.91
2023-03-29T05:42:44.805Z,6.24
2023-03-29T05:43:44.790Z,7.36
2023-03-29T05:44:44.788Z,8.14
2023-03-29T05:45:44.928Z,8.11
2023-03-29T05:46:44.841Z,8.42
2023-03-29T05:47:44.878Z,8.40
2023-03-29T05:48:44.879Z,8.67
2023-03-29T05:49:44.907Z,7.53
2023-03-29T05:50:46.301Z,5.71
2023-03-29T05:51:44.962Z,5.49
2023-03-29T05:52:44.988Z,4.75
2023-03-29T05:53:44.978Z,4.00
2023-03-29T05:54:44.997Z,3.61
2023-03-29T05:55:44.992Z,3.28
2023-03-29T05:56:45.046Z,2.96
2023-03-29T05:57:45.037Z,2.73
2023-03-29T05:58:45.079Z,2.48
2023-03-29T05:59:45.086Z,2.16
2023-03-29T06:00:45.130Z,2.72
2023-03-29T06:01:45.113Z,3.13
2023-03-29T06:02:45.332Z,3.40
2023-03-29T06:03:45.473Z,3.61
2023-03-29T06:04:45.262Z,4.02
2023-03-29T06:05:47.178Z,4.32
2023-03-29T06:06:45.215Z,4.64
2023-03-29T06:07:45.262Z,5.04
2023-03-29T06:08:45.208Z,5.38
2023-03-29T06:09:45.227Z,5.67
2023-03-29T06:10:45.202Z,6.11
2023-03-29T06:11:45.172Z,6.77
2023-03-29T06:12:45.183Z,7.00
2023-03-29T06:13:45.210Z,7.18
2023-03-29T06:14:45.171Z,7.45
2023-03-29T06:15:45.222Z,7.44
2023-03-29T06:16:45.175Z,7.62
2023-03-29T06:17:45.184Z,8.05
2023-03-29T06:18:45.139Z,7.93
2023-03-29T06:19:45.176Z,7.96
2023-03-29T06:20:45.131Z,8.52
2023-03-29T06:21:45.115Z,8.62
2023-03-29T06:22:45.095Z,8.80
2023-03-29T06:23:45.133Z,8.99
2023-03-29T06:24:45.153Z,9.26
2023-03-29T06:25:45.397Z,9.44
2023-03-29T06:26:45.178Z,10.31
2023-03-29T06:27:45.104Z,10.10
2023-03-29T06:28:45.049Z,10.20
2023-03-29T06:29:45.065Z,10.17
2023-03-29T06:30:45.163Z,9.00
2023-03-29T06:31:45.076Z,7.72
2023-03-29T06:32:45.095Z,7.76
2023-03-29T06:33:45.022Z,7.54
2023-03-29T06:34:45.040Z,7.07
2023-03-29T06:35:45.953Z,8.72
2023-03-29T06:36:45.056Z,8.79
2023-03-29T06:37:45.004Z,8.89
2023-03-29T06:38:45.014Z,9.51
2023-03-29T06:39:44.974Z,9.76
2023-03-29T06:40:45.012Z,11.11
2023-03-29T06:41:44.985Z,12.33
2023-03-29T06:42:44.961Z,12.43
2023-03-29T06:43:44.955Z,11.56
2023-03-29T06:44:44.959Z,11.78
2023-03-29T06:45:44.932Z,11.46
2023-03-29T06:46:45.501Z,11.16
2023-03-29T06:47:44.999Z,11.39
2023-03-29T06:48:44.999Z,11.96
2023-03-29T06:49:44.909Z,12.81
2023-03-29T06:50:44.903Z,13.17
2023-03-29T06:51:44.914Z,13.01
2023-03-29T06:52:45.399Z,12.80
2023-03-29T06:53:44.942Z,11.69
2023-03-29T06:54:44.895Z,12.10
2023-03-29T06:55:44.886Z,12.87
2023-03-29T06:56:44.938Z,14.24
2023-03-29T06:57:44.876Z,14.18
2023-03-29T06:58:44.854Z,13.84
2023-03-29T06:59:45.027Z,13.23
2023-03-29T07:00:44.867Z,13.63
2023-03-29T07:01:44.885Z,12.35
2023-03-29T07:02:44.976Z,11.67
2023-03-29T07:03:46.778Z,11.43
2023-03-29T07:04:45.013Z,10.71
2023-03-29T07:05:44.954Z,10.30
2023-03-29T07:06:45.064Z,9.74
2023-03-29T07:07:45.389Z,9.21
2023-03-29T07:08:45.103Z,8.81
2023-03-29T07:09:45.093Z,8.53
2023-03-29T07:10:45.117Z,8.14
2023-03-29T07:11:45.211Z,8.21
2023-03-29T07:12:45.161Z,7.88
2023-03-29T07:13:45.167Z,8.27
2023-03-29T07:14:46.597Z,8.30
2023-03-29T07:15:45.253Z,8.30
2023-03-29T07:16:45.318Z,8.45
2023-03-29T07:17:45.359Z,8.89
2023-03-29T07:18:45.298Z,9.71
2023-03-29T07:19:45.332Z,9.99
2023-03-29T07:20:45.388Z,9.80
2023-03-29T07:21:45.423Z,9.65
2023-03-29T07:22:45.382Z,9.47
2023-03-29T07:23:45.396Z,9.32
2023-03-29T07:24:45.458Z,8.72
2023-03-29T07:25:45.459Z,7.83
2023-03-29T07:27:00.045Z,7.98
2023-03-29T07:27:46.930Z,8.00
2023-03-29T07:28:45.495Z,8.05
2023-03-29T07:29:45.467Z,7.98
2023-03-29T07:30:45.470Z,7.86
2023-03-29T07:31:45.450Z,7.85
2023-03-29T07:32:46.960Z,8.15
2023-03-29T07:33:45.968Z,8.16
2023-03-29T07:34:45.600Z,8.27
2023-03-29T07:35:45.889Z,8.37
2023-03-29T07:36:45.612Z,8.43
2023-03-29T07:37:46.078Z,8.40
2023-03-29T07:38:45.729Z,7.94
2023-03-29T07:39:47.047Z,7.83
2023-03-29T07:40:45.724Z,7.90
2023-03-29T07:41:45.887Z,7.92
2023-03-29T07:42:45.835Z,8.01
2023-03-29T07:43:45.831Z,8.20
2023-03-29T07:44:45.919Z,8.59
2023-03-29T07:45:45.943Z,6.68
2023-03-29T07:46:45.931Z,8.01
2023-03-29T07:47:45.961Z,10.70
2023-03-29T07:48:45.968Z,16.11
2023-03-29T07:49:46.429Z,18.69
2023-03-29T07:50:46.028Z,26.73
2023-03-29T07:51:46.054Z,28.39
2023-03-29T07:52:46.163Z,26.51
2023-03-29T07:53:46.143Z,28.23
2023-03-29T07:54:46.435Z,25.95
2023-03-29T07:55:47.164Z,24.04
2023-03-29T07:56:46.318Z,20.93
2023-03-29T07:57:46.313Z,16.30
2023-03-29T07:58:46.385Z,12.00
2023-03-29T07:59:46.434Z,11.19
2023-03-29T08:00:46.506Z,11.22
2023-03-29T08:01:46.528Z,10.33
2023-03-29T08:02:46.611Z,8.94
2023-03-29T08:03:46.702Z,8.13
2023-03-29T08:04:46.701Z,7.68
2023-03-29T08:05:46.699Z,7.31
2023-03-29T08:06:46.729Z,6.79
2023-03-29T08:07:46.820Z,6.98
2023-03-29T08:08:46.847Z,7.03
2023-03-29T08:09:46.932Z,6.93
2023-03-29T08:10:46.966Z,6.36
2023-03-29T08:11:46.999Z,5.53
2023-03-29T08:12:47.061Z,5.30
2023-03-29T08:13:47.104Z,5.15
2023-03-29T08:14:47.441Z,5.07
2023-03-29T08:15:47.445Z,4.82
2023-03-29T08:16:47.325Z,4.32
2023-03-29T08:17:47.368Z,4.41
2023-03-29T08:18:47.375Z,4.20
2023-03-29T08:19:51.437Z,4.15
2023-03-29T08:20:48.925Z,4.16
2023-03-29T08:21:47.418Z,4.22
2023-03-29T08:22:47.422Z,3.64
2023-03-29T08:23:47.413Z,4.33
2023-03-29T08:24:47.442Z,5.11
2023-03-29T08:25:47.435Z,4.64
2023-03-29T08:26:47.411Z,4.96
2023-03-29T08:27:47.488Z,5.31
2023-03-29T08:28:47.394Z,5.68
2023-03-29T08:29:47.387Z,5.65
2023-03-29T08:30:47.384Z,6.13
2023-03-29T08:31:47.439Z,6.08
2023-03-29T08:32:50.943Z,6.03
2023-03-29T08:33:47.484Z,6.03
2023-03-29T08:34:47.492Z,6.05
2023-03-29T08:35:47.504Z,5.82
2023-03-29T08:36:47.501Z,5.58
2023-03-29T08:37:47.966Z,5.59
2023-03-29T08:38:47.952Z,5.98
2023-03-29T08:39:47.453Z,6.30
2023-03-29T08:40:47.404Z,6.46
2023-03-29T08:41:47.407Z,6.26
2023-03-29T08:42:47.400Z,6.33
2023-03-29T08:43:47.456Z,6.40
2023-03-29T08:44:47.419Z,6.51
2023-03-29T08:45:49.736Z,6.32
2023-03-29T08:46:47.423Z,6.46
2023-03-29T08:47:47.410Z,6.57
2023-03-29T08:48:47.390Z,6.44
2023-03-29T08:49:47.351Z,6.26
2023-03-29T08:50:47.358Z,6.16
2023-03-29T08:51:47.370Z,6.31
2023-03-29T08:52:47.348Z,6.26
2023-03-29T08:53:47.342Z,6.27
2023-03-29T08:54:47.353Z,6.31
2023-03-29T08:55:47.348Z,6.38
2023-03-29T08:56:47.335Z,6.40
2023-03-29T08:57:47.322Z,6.36
2023-03-29T08:58:47.317Z,6.17
2023-03-29T08:59:47.298Z,6.05
2023-03-29T09:00:47.301Z,6.23
2023-03-29T09:01:48.617Z,6.21
2023-03-29T09:02:47.475Z,6.39
2023-03-29T09:03:47.370Z,6.02
2023-03-29T09:04:47.271Z,6.13
2023-03-29T09:05:47.249Z,6.37
2023-03-29T09:06:47.239Z,6.28
2023-03-29T09:07:47.242Z,6.35
2023-03-29T09:08:47.463Z,6.41
2023-03-29T09:09:47.290Z,6.21
2023-03-29T09:10:47.229Z,6.50
2023-03-29T09:11:47.211Z,6.57
2023-03-29T09:12:47.248Z,6.30
2023-03-29T09:13:47.236Z,6.07
2023-03-29T09:14:47.240Z,5.98
2023-03-29T09:15:47.229Z,5.67
2023-03-29T09:16:47.194Z,5.67
2023-03-29T09:17:49.606Z,5.68
2023-03-29T09:18:47.388Z,5.61
2023-03-29T09:19:47.389Z,5.66
2023-03-29T09:20:47.460Z,5.55
2023-03-29T09:21:47.393Z,5.57
2023-03-29T09:22:47.463Z,5.68
2023-03-29T09:23:47.412Z,5.64
2023-03-29T09:24:47.386Z,5.68
2023-03-29T09:25:53.341Z,5.71
2023-03-29T09:26:48.428Z,5.07
2023-03-29T09:27:47.471Z,4.79
2023-03-29T09:28:47.492Z,5.22
2023-03-29T09:29:48.443Z,4.75
2023-03-29T09:30:47.437Z,4.74
2023-03-29T09:31:47.693Z,3.86
2023-03-29T09:32:47.515Z,3.54
2023-03-29T09:33:47.500Z,3.16
2023-03-29T09:34:47.372Z,2.75
2023-03-29T09:35:47.426Z,2.56
2023-03-29T09:36:47.373Z,2.96
2023-03-29T09:37:47.353Z,2.95
2023-03-29T09:38:47.382Z,3.30
2023-03-29T09:39:47.406Z,3.44
2023-03-29T09:40:47.461Z,3.38
2023-03-29T09:41:47.532Z,3.17
2023-03-29T09:42:47.575Z,3.20
2023-03-29T09:43:47.644Z,3.53
2023-03-29T09:44:47.660Z,3.87
2023-03-29T09:45:47.748Z,4.25
2023-03-29T09:46:47.750Z,4.75
2023-03-29T09:47:47.844Z,4.95
2023-03-29T09:48:47.959Z,5.25
2023-03-29T09:49:47.835Z,5.41
2023-03-29T09:50:47.819Z,5.34
2023-03-29T09:51:47.840Z,5.41
2023-03-29T09:52:47.875Z,5.06
2023-03-29T09:53:47.932Z,5.17
2023-03-29T09:54:47.904Z,5.11
2023-03-29T09:55:49.796Z,5.02
2023-03-29T09:56:48.024Z,5.10
2023-03-29T09:57:47.937Z,5.05
2023-03-29T09:58:47.947Z,5.16
2023-03-29T09:59:47.951Z,4.92
2023-03-29T10:00:47.986Z,4.91
2023-03-29T10:01:48.068Z,4.81
2023-03-29T10:02:48.004Z,4.92
2023-03-29T10:03:48.523Z,4.91
2023-03-29T10:04:47.968Z,4.83
2023-03-29T10:05:47.968Z,4.75
2023-03-29T10:06:47.967Z,4.67
2023-03-29T10:07:47.965Z,4.68
2023-03-29T10:08:47.942Z,4.07
2023-03-29T10:09:48.481Z,4.30
2023-03-29T10:10:47.966Z,4.51
2023-03-29T10:11:47.946Z,2.28
2023-03-29T10:12:47.972Z,2.00
2023-03-29T10:13:47.967Z,1.93
2023-03-29T10:14:48.026Z,1.55
2023-03-29T10:15:47.993Z,2.23
2023-03-29T10:16:48.105Z,2.63
2023-03-29T10:17:48.047Z,2.16
2023-03-29T10:18:48.057Z,1.97
2023-03-29T10:19:48.515Z,2.12
2023-03-29T10:20:48.167Z,2.16
2023-03-29T10:21:48.201Z,2.09
2023-03-29T10:22:48.254Z,2.27
2023-03-29T10:23:48.278Z,2.93
2023-03-29T10:24:48.474Z,3.62
2023-03-29T10:25:48.324Z,3.77
2023-03-29T10:26:48.446Z,3.96
2023-03-29T10:27:48.420Z,3.94
2023-03-29T10:28:48.453Z,3.85
2023-03-29T10:29:48.481Z,4.09
2023-03-29T10:30:48.497Z,3.89
2023-03-29T10:31:48.636Z,4.18
2023-03-29T10:32:48.598Z,4.05
2023-03-29T10:33:48.602Z,4.49
2023-03-29T10:34:48.594Z,4.62
2023-03-29T10:35:48.740Z,4.46
2023-03-29T10:36:48.661Z,4.57
2023-03-29T10:37:48.680Z,5.25
2023-03-29T10:38:48.718Z,5.51
2023-03-29T10:39:48.773Z,5.47
2023-03-29T10:40:48.811Z,5.29
2023-03-29T10:41:48.783Z,5.03
2023-03-29T10:42:48.814Z,4.98
2023-03-29T10:43:48.821Z,4.92
2023-03-29T10:44:48.850Z,4.48
2023-03-29T10:45:48.882Z,4.28
2023-03-29T10:46:48.871Z,3.75
2023-03-29T10:47:48.922Z,3.26
2023-03-29T10:48:48.915Z,2.61
2023-03-29T10:49:50.866Z,2.41
2023-03-29T10:50:48.957Z,2.75
2023-03-29T10:51:48.989Z,2.62
2023-03-29T10:52:49.002Z,2.44
2023-03-29T10:53:49.036Z,2.61
2023-03-29T10:54:49.087Z,2.56
2023-03-29T10:55:49.071Z,2.52
2023-03-29T10:56:50.819Z,2.63
2023-03-29T10:57:49.119Z,2.09
2023-03-29T10:58:49.106Z,2.13
2023-03-29T10:59:49.490Z,2.55
2023-03-29T11:00:49.094Z,2.18
2023-03-29T11:01:49.108Z,2.23
2023-03-29T11:02:49.167Z,2.07
2023-03-29T11:03:49.222Z,2.38
2023-03-29T11:04:49.491Z,2.52
2023-03-29T11:05:49.044Z,2.90
2023-03-29T11:06:49.036Z,3.19
2023-03-29T11:07:49.021Z,3.45
2023-03-29T11:08:49.042Z,3.97
2023-03-29T11:09:49.040Z,4.02
2023-03-29T11:10:49.016Z,4.07
2023-03-29T11:11:49.012Z,4.00
2023-03-29T11:12:49.020Z,4.33
2023-03-29T11:13:49.046Z,4.42
2023-03-29T11:14:49.037Z,4.41
2023-03-29T11:15:49.061Z,4.52
2023-03-29T11:16:48.985Z,3.58
2023-03-29T11:17:49.042Z,3.17
2023-03-29T11:18:49.002Z,3.46
2023-03-29T11:19:48.956Z,3.76
2023-03-29T11:20:48.968Z,3.84
2023-03-29T11:21:48.945Z,4.17
2023-03-29T11:22:48.938Z,3.85
2023-03-29T11:23:48.952Z,3.98
2023-03-29T11:24:48.937Z,3.82
2023-03-29T11:25:48.928Z,3.46
2023-03-29T11:26:48.907Z,3.71
2023-03-29T11:27:48.904Z,3.84
2023-03-29T11:28:48.907Z,3.72
2023-03-29T11:29:48.902Z,3.81
2023-03-29T11:30:48.905Z,3.85
2023-03-29T11:31:48.892Z,3.83
2023-03-29T11:32:48.919Z,3.76
2023-03-29T11:33:48.913Z,3.77
2023-03-29T11:34:48.852Z,3.64
2023-03-29T11:35:48.893Z,3.41
2023-03-29T11:36:48.833Z,3.50
2023-03-29T11:37:48.821Z,3.53
2023-03-29T11:38:48.841Z,3.43
2023-03-29T11:39:48.824Z,3.37
2023-03-29T11:40:48.837Z,3.30
2023-03-29T11:41:48.810Z,3.41
2023-03-29T11:42:48.808Z,3.62
2023-03-29T11:43:48.800Z,3.53
2023-03-29T11:44:48.777Z,3.43
2023-03-29T11:45:48.804Z,3.43
2023-03-29T11:46:48.807Z,3.63
2023-03-29T11:47:48.808Z,3.59
2023-03-29T11:48:48.761Z,3.49
2023-03-29T11:49:48.800Z,3.52
2023-03-29T11:50:48.770Z,3.44
2023-03-29T11:51:48.748Z,3.37
2023-03-29T11:52:48.792Z,3.24
2023-03-29T11:53:48.743Z,3.32
2023-03-29T11:54:48.738Z,3.23
2023-03-29T11:55:49.039Z,3.02
2023-03-29T11:56:48.802Z,3.12
2023-03-29T11:57:49.017Z,2.94
2023-03-29T11:58:48.723Z,2.96
2023-03-29T11:59:48.696Z,3.09
2023-03-29T12:00:48.702Z,2.93
2023-03-29T12:01:48.714Z,2.97
2023-03-29T12:02:49.246Z,2.99
2023-03-29T12:03:48.791Z,3.00
2023-03-29T12:04:48.680Z,2.94
2023-03-29T12:05:48.663Z,2.91
2023-03-29T12:06:48.682Z,2.71
2023-03-29T12:07:49.034Z,2.85
2023-03-29T12:08:48.633Z,2.61
2023-03-29T12:09:48.639Z,2.60
2023-03-29T12:10:49.542Z,2.64
2023-03-29T12:11:48.614Z,2.71
2023-03-29T12:12:49.055Z,2.72
2023-03-29T12:13:48.610Z,2.73
2023-03-29T12:14:48.593Z,2.60
2023-03-29T12:15:48.600Z,2.70
2023-03-29T12:16:48.647Z,2.91
2023-03-29T12:17:48.631Z,2.63
2023-03-29T12:18:48.573Z,2.75
2023-03-29T12:19:48.569Z,2.81
2023-03-29T12:20:48.575Z,2.72
2023-03-29T12:21:48.541Z,2.71
2023-03-29T12:22:48.555Z,2.48
2023-03-29T12:23:48.521Z,2.44
2023-03-29T12:24:48.524Z,2.49
2023-03-29T12:25:48.520Z,2.49
2023-03-29T12:26:48.509Z,2.62
2023-03-29T12:27:48.493Z,2.48
2023-03-29T12:28:48.506Z,2.39
2023-03-29T12:29:48.499Z,2.41
2023-03-29T12:30:48.485Z,2.46
2023-03-29T12:31:48.503Z,2.32
2023-03-29T12:32:48.534Z,2.39
2023-03-29T12:33:48.460Z,2.29
2023-03-29T12:34:48.475Z,2.44
2023-03-29T12:35:48.492Z,2.40
2023-03-29T12:36:48.465Z,2.46
2023-03-29T12:37:48.464Z,2.41
2023-03-29T12:38:48.455Z,2.40
2023-03-29T12:39:48.428Z,2.30
2023-03-29T12:40:48.441Z,2.36
2023-03-29T12:41:48.420Z,2.37
2023-03-29T12:42:48.413Z,2.46
2023-03-29T12:43:48.440Z,2.33
2023-03-29T12:44:48.458Z,2.44
2023-03-29T12:45:48.569Z,2.36
2023-03-29T12:46:48.707Z,2.36
2023-03-29T12:47:48.508Z,2.39
2023-03-29T12:48:48.508Z,2.42
2023-03-29T12:49:48.506Z,2.26
2023-03-29T12:50:48.534Z,2.28
2023-03-29T12:51:48.539Z,2.27
2023-03-29T12:52:48.536Z,2.23
2023-03-29T12:53:48.555Z,2.24
2023-03-29T12:54:48.539Z,2.22
2023-03-29T12:55:48.538Z,2.26
2023-03-29T12:56:48.580Z,2.31
2023-03-29T12:57:48.562Z,2.14
2023-03-29T12:58:48.589Z,2.19
2023-03-29T12:59:48.592Z,2.06
2023-03-29T13:00:48.598Z,2.06
2023-03-29T13:01:48.666Z,2.07
2023-03-29T13:02:48.677Z,2.06
2023-03-29T13:03:48.616Z,2.00
2023-03-29T13:04:48.674Z,2.09
2023-03-29T13:05:48.750Z,2.08
2023-03-29T13:06:48.671Z,2.19
2023-03-29T13:07:48.658Z,2.15
2023-03-29T13:08:48.675Z,2.18
2023-03-29T13:09:48.694Z,2.23
2023-03-29T13:10:48.699Z,2.20
2023-03-29T13:11:48.730Z,2.10
2023-03-29T13:12:48.718Z,2.10
2023-03-29T13:13:48.752Z,2.05
2023-03-29T13:14:48.801Z,2.02
2023-03-29T13:15:48.833Z,2.04
2023-03-29T13:16:48.807Z,1.91
2023-03-29T13:17:48.866Z,1.89
2023-03-29T13:18:48.832Z,1.95
2023-03-29T13:19:48.849Z,1.83